Time;durP1;ratioP1;P1;durP2;ratioP2;P2;SDS_P1;SDS_P2;PMS_P1;PMS_P2;Temp;Humidity;BMP_temperature;BMP_pressure;BME280_temperature;BME280_humidity;BME280_pressure;Samples;Min_cycle;Max_cycle;Signal;HPM_P1;HPM_P2
2023/05/01 00:01:31;;;;;;;1999.90;999.90;;;;;;;9.72;100.00;95185.59;5009967;28;20203;-70
2023/05/01 00:03:57;;;;;;;1999.90;999.90;;;;;;;9.70;100.00;95185.25;5010095;28;20213;-71
2023/05/01 00:06:22;;;;;;;1999.90;999.90;;;;;;;9.67;100.00;95186.03;5010005;28;20239;-70
2023/05/01 00:08:47;;;;;;;1999.90;999.90;;;;;;;9.66;100.00;95174.34;5010018;28;20268;-70
2023/05/01 00:11:14;;;;;;;1999.90;999.90;;;;;;;9.64;100.00;95167.75;5009833;28;20228;-71
2023/05/01 00:13:40;;;;;;;1999.90;999.90;;;;;;;9.68;100.00;95169.28;5010049;28;20243;-71
2023/05/01 00:16:09;;;;;;;1999.90;999.90;;;;;;;9.63;100.00;95172.44;5009864;28;20191;-71
2023/05/01 00:18:35;;;;;;;1999.90;999.90;;;;;;;9.65;100.00;95161.91;5009873;28;20227;-70
2023/05/01 00:21:00;;;;;;;1999.90;999.90;;;;;;;9.60;100.00;95159.63;5009874;28;20186;-71
2023/05/01 00:23:26;;;;;;;1999.90;999.90;;;;;;;9.58;100.00;95153.78;5010101;28;20207;-73
2023/05/01 00:25:52;;;;;;;1999.90;999.90;;;;;;;9.64;100.00;95157.63;5010143;28;20226;-70
2023/05/01 00:28:18;;;;;;;1999.90;999.90;;;;;;;9.58;100.00;95156.50;5010205;28;20239;-71
2023/05/01 00:30:44;;;;;;;1999.90;999.90;;;;;;;9.61;100.00;95147.53;5010017;28;20203;-71
2023/05/01 00:33:09;;;;;;;1999.90;999.90;;;;;;;9.54;100.00;95146.81;5009580;28;20260;-70
2023/05/01 00:35:35;;;;;;;1999.90;999.90;;;;;;;9.54;100.00;95142.13;5009457;28;20276;-71
2023/05/01 00:38:00;;;;;;;1999.90;999.90;;;;;;;9.49;100.00;95142.56;5009732;28;20274;-71
2023/05/01 00:40:26;;;;;;;1999.90;999.90;;;;;;;9.50;100.00;95146.06;5009353;28;20204;-71
2023/05/01 00:42:52;;;;;;;1999.90;999.90;;;;;;;9.50;100.00;95146.84;5009536;28;20252;-71
2023/05/01 00:45:17;;;;;;;1999.90;999.90;;;;;;;9.43;100.00;95141.44;5009514;28;20207;-71
2023/05/01 00:47:43;;;;;;;1999.90;999.90;;;;;;;9.39;100.00;95146.16;5009430;28;20264;-69
2023/05/01 00:50:08;;;;;;;1999.90;999.90;;;;;;;9.35;100.00;95142.69;5009997;28;20199;-70
2023/05/01 00:52:34;;;;;;;1999.90;999.90;;;;;;;9.32;100.00;95135.31;5009389;28;20163;-69
2023/05/01 00:55:00;;;;;;;1999.90;999.90;;;;;;;9.32;100.00;95129.84;5009670;28;20200;-72
2023/05/01 00:57:25;;;;;;;1999.90;999.90;;;;;;;9.30;100.00;95129.50;5009499;28;20240;-71
2023/05/01 00:59:50;;;;;;;1999.90;999.90;;;;;;;9.24;100.00;95128.38;5009161;28;20227;-71
2023/05/01 01:02:16;;;;;;;1999.90;999.90;;;;;;;9.18;100.00;95123.75;5009100;28;20270;-71
2023/05/01 01:04:43;;;;;;;1999.90;999.90;;;;;;;9.09;100.00;95126.13;5009018;28;20207;-70
2023/05/01 01:07:23;;;;;;;1999.90;999.90;;;;;;;9.05;100.00;95114.50;5008829;28;20220;-71
2023/05/01 01:09:57;;;;;;;1999.90;999.90;;;;;;;8.93;100.00;95110.28;5009027;28;20210;-71
2023/05/01 01:12:28;;;;;;;1999.90;999.90;;;;;;;8.91;100.00;95104.47;5008985;28;20219;-71
2023/05/01 01:15:26;;;;;;;1999.90;999.90;;;;;;;8.84;100.00;95104.53;5009333;28;20200;-71
2023/05/01 01:18:16;;;;;;;1999.90;999.90;;;;;;;8.80;100.00;95098.34;5009294;28;20200;-71
2023/05/01 01:21:00;;;;;;;1999.90;999.90;;;;;;;8.79;100.00;95102.25;5008635;28;20203;-71
2023/05/01 01:23:40;;;;;;;1999.90;999.90;;;;;;;8.80;100.00;95098.34;5008796;28;20203;-70
2023/05/01 01:26:09;;;;;;;1999.90;999.90;;;;;;;8.78;100.00;95095.22;5008205;28;20210;-72
2023/05/01 01:28:59;;;;;;;1999.90;999.90;;;;;;;8.74;100.00;95088.28;5009168;28;20173;-71
2023/05/01 01:31:25;;;;;;;1999.90;999.90;;;;;;;8.71;100.00;95089.06;5008659;28;20203;-70
2023/05/01 01:34:03;;;;;;;1999.90;999.90;;;;;;;8.68;100.00;95081.69;5008351;28;20200;-72
2023/05/01 01:36:39;;;;;;;1999.90;999.90;;;;;;;8.67;100.00;95083.63;5008517;28;20207;-71
2023/05/01 01:39:13;;;;;;;1999.90;999.90;;;;;;;8.65;100.00;95080.53;5008576;28;20192;-70
2023/05/01 01:41:40;;;;;;;1999.90;999.90;;;;;;;8.64;100.00;95072.78;5008547;28;20199;-72
2023/05/01 01:44:20;;;;;;;1999.90;999.90;;;;;;;8.60;100.00;95070.06;5008408;28;20202;-71
2023/05/01 01:46:47;;;;;;;1999.90;999.90;;;;;;;8.55;100.00;95073.22;5008303;28;20271;-70
2023/05/01 01:49:19;;;;;;;1999.90;999.90;;;;;;;8.53;100.00;95058.47;5008588;28;20231;-71
2023/05/01 01:51:46;;;;;;;1999.90;999.90;;;;;;;8.46;100.00;95059.28;5008367;28;20203;-70
2023/05/01 01:54:14;;;;;;;1999.90;999.90;;;;;;;8.43;100.00;95051.91;5008111;28;20262;-72
2023/05/01 01:56:41;;;;;;;1999.90;999.90;;;;;;;8.43;100.00;95041.03;5007944;28;20310;-72
2023/05/01 01:59:08;;;;;;;1999.90;999.90;;;;;;;8.39;100.00;95040.28;5008033;28;20194;-71
2023/05/01 02:01:35;;;;;;;1999.90;999.90;;;;;;;8.31;100.00;95038.75;5007855;28;20195;-73
2023/05/01 02:04:02;;;;;;;1999.90;999.90;;;;;;;8.30;100.00;95029.03;5008031;28;20205;-72
2023/05/01 02:06:30;;;;;;;1999.90;999.90;;;;;;;8.25;100.00;95029.47;5008280;28;20229;-72
2023/05/01 02:08:57;;;;;;;1999.90;999.90;;;;;;;8.20;100.00;95021.66;5007830;28;20238;-73
2023/05/01 02:11:24;;;;;;;1999.90;999.90;;;;;;;8.14;100.00;95009.69;5007834;28;20194;-73
2023/05/01 02:13:51;;;;;;;1999.90;999.90;;;;;;;8.09;100.00;95004.63;5008313;28;20199;-72
2023/05/01 02:16:19;;;;;;;1999.90;999.90;;;;;;;8.04;100.00;95001.56;5007812;28;20202;-72
2023/05/01 02:18:45;;;;;;;1999.90;999.90;;;;;;;7.97;100.00;94986.06;5008028;28;20207;-71
2023/05/01 02:21:13;;;;;;;1999.90;999.90;;;;;;;7.96;100.00;94984.53;5007944;28;20206;-71
2023/05/01 02:23:39;;;;;;;1999.90;999.90;;;;;;;8.02;100.00;94971.28;5007638;28;20203;-72
2023/05/01 02:26:08;;;;;;;1999.90;999.90;;;;;;;7.94;100.00;94961.63;5007128;28;20241;-71
2023/05/01 02:28:36;;;;;;;1999.90;999.90;;;;;;;7.94;100.00;94964.34;5007789;28;20241;-71
2023/05/01 02:31:01;;;;;;;1999.90;999.90;;;;;;;7.98;100.00;94959.66;5007547;28;20217;-71
2023/05/01 02:33:27;;;;;;;1999.90;999.90;;;;;;;7.97;100.00;94952.69;5007817;28;20187;-71
2023/05/01 02:35:52;;;;;;;1999.90;999.90;;;;;;;8.00;100.00;94947.22;5007942;28;20269;-72
2023/05/01 02:38:18;;;;;;;1999.90;999.90;;;;;;;7.99;100.00;94937.50;5007482;28;20352;-72
2023/05/01 02:40:48;;;;;;;1999.90;999.90;;;;;;;7.99;100.00;94934.81;5007945;28;20195;-71
2023/05/01 02:43:18;;;;;;;1999.90;999.90;;;;;;;7.98;100.00;94935.19;5007940;28;20226;-71
2023/05/01 02:45:45;;;;;;;1999.90;999.90;;;;;;;7.96;100.00;94919.28;5007561;28;20229;-72
2023/05/01 02:48:14;;;;;;;1999.90;999.90;;;;;;;7.96;100.00;94913.84;5007672;28;20278;-71
2023/05/01 02:50:42;;;;;;;1999.90;999.90;;;;;;;7.93;100.00;94909.19;5007385;28;20206;-71
2023/05/01 02:53:08;;;;;;;1999.90;999.90;;;;;;;7.93;100.00;94905.69;5007561;28;20195;-71
2023/05/01 02:55:34;;;;;;;1999.90;999.90;;;;;;;7.84;100.00;94900.72;5007344;28;20202;-72
2023/05/01 02:58:00;;;;;;;1999.90;999.90;;;;;;;7.83;100.00;94893.72;5007359;28;20191;-72
2023/05/01 03:00:26;;;;;;;1999.90;999.90;;;;;;;7.83;100.00;94893.72;5007520;28;20187;-72
2023/05/01 03:02:52;;;;;;;1999.90;999.90;;;;;;;7.84;100.00;94881.69;5007461;28;20362;-72
2023/05/01 03:05:18;;;;;;;1999.90;999.90;;;;;;;7.79;100.00;94873.94;5007588;28;20187;-71
2023/05/01 03:07:44;;;;;;;1999.90;999.90;;;;;;;7.78;100.00;94869.69;5007832;28;20282;-71
2023/05/01 03:10:10;;;;;;;1999.90;999.90;;;;;;;7.79;100.00;94865.78;5007189;28;20253;-72
2023/05/01 03:12:35;;;;;;;1999.90;999.90;;;;;;;7.80;100.00;94858.41;5007202;28;20210;-72
2023/05/01 03:15:00;;;;;;;1999.90;999.90;;;;;;;7.78;100.00;94852.59;5007144;28;20191;-72
2023/05/01 03:17:26;;;;;;;1999.90;999.90;;;;;;;7.78;100.00;94849.88;5007119;28;20353;-72
2023/05/01 03:19:51;;;;;;;1999.90;999.90;;;;;;;7.76;100.00;94844.84;5007010;28;20225;-72
2023/05/01 03:22:17;;;;;;;1999.90;999.90;;;;;;;7.73;100.00;94840.22;5007730;28;20262;-71
2023/05/01 03:24:42;;;;;;;1999.90;999.90;;;;;;;7.68;100.00;94837.91;5007204;28;20232;-71
2023/05/01 03:27:08;;;;;;;1999.90;999.90;;;;;;;7.69;100.00;94825.88;5007052;28;20234;-71
2023/05/01 03:29:36;;;;;;;1999.90;999.90;;;;;;;7.71;100.00;94826.25;5007209;28;20199;-73
2023/05/01 03:32:02;;;;;;;1999.90;999.90;;;;;;;7.72;100.00;94816.91;5007292;28;20197;-73
2023/05/01 03:34:27;;;;;;;1999.90;999.90;;;;;;;7.74;100.00;94802.94;5007219;28;20198;-76
2023/05/01 03:36:53;;;;;;;1999.90;999.90;;;;;;;7.75;100.00;94791.66;5007294;28;20166;-73
2023/05/01 03:39:18;;;;;;;1999.90;999.90;;;;;;;7.78;100.00;94787.38;5010966;28;20202;-74
2023/05/01 03:41:44;;;;;;;1999.90;999.90;;;;;;;7.79;100.00;94778.06;5011045;28;20195;-72
2023/05/01 03:44:09;;;;;;;1999.90;999.90;;;;;;;7.73;100.00;94775.00;5010906;28;20206;-74
2023/05/01 03:46:35;;;;;;;1999.90;999.90;;;;;;;7.75;100.00;94771.88;5010479;28;20275;-72
2023/05/01 03:49:00;;;;;;;1999.90;999.90;;;;;;;7.82;100.00;94766.38;5010537;28;20198;-72
2023/05/01 03:51:26;;;;;;;1999.90;999.90;;;;;;;7.83;100.00;94755.09;5010462;28;20191;-70
2023/05/01 03:53:51;;;;;;;1999.90;999.90;;;;;;;7.80;100.00;94764.09;5010288;28;20196;-71
2023/05/01 03:56:17;;;;;;;1999.90;999.90;;;;;;;7.84;100.00;94753.94;5010315;28;20270;-73
2023/05/01 03:58:43;;;;;;;1999.90;999.90;;;;;;;7.84;100.00;94748.50;5010742;28;20188;-73
2023/05/01 04:01:08;;;;;;;1999.90;999.90;;;;;;;7.86;100.00;94743.44;5010481;28;20221;-73
2023/05/01 04:03:33;;;;;;;1999.90;999.90;;;;;;;7.84;100.00;94740.34;5010451;28;20187;-73
2023/05/01 04:05:59;;;;;;;1999.90;999.90;;;;;;;7.86;100.00;94724.41;5009780;28;20202;-74
2023/05/01 04:08:24;;;;;;;1999.90;999.90;;;;;;;7.83;100.00;94719.78;5010885;28;20171;-73
2023/05/01 04:10:50;;;;;;;1999.90;999.90;;;;;;;7.83;100.00;94710.88;5010479;28;20222;-72
2023/05/01 04:13:16;;;;;;;1999.90;999.90;;;;;;;7.84;100.00;94715.91;5010559;28;20221;-72
2023/05/01 04:15:45;;;;;;;1999.90;999.90;;;;;;;7.80;100.00;94698.84;5010338;28;20225;-72
2023/05/01 04:18:11;;;;;;;1999.90;999.90;;;;;;;7.85;100.00;94698.41;5009867;28;20187;-72
2023/05/01 04:20:36;;;;;;;1999.90;999.90;;;;;;;7.93;100.00;94696.38;5010074;28;20202;-73
2023/05/01 04:23:02;;;;;;;1999.90;999.90;;;;;;;7.98;100.00;94694.00;5010242;28;20250;-72
2023/05/01 04:25:27;;;;;;;1999.90;999.90;;;;;;;7.99;100.00;94692.84;5010354;28;20191;-72
2023/05/01 04:27:52;;;;;;;1999.90;999.90;;;;;;;8.04;100.00;94692.41;5009621;28;20270;-72
2023/05/01 04:30:18;;;;;;;1999.90;999.90;;;;;;;8.13;100.00;94684.53;5009542;28;20187;-73
2023/05/01 04:32:43;;;;;;;1999.90;999.90;;;;;;;8.24;100.00;94690.69;5009926;28;20213;-71
2023/05/01 04:35:09;;;;;;;1999.90;999.90;;;;;;;8.33;100.00;94692.88;5010321;28;20192;-74
2023/05/01 04:37:35;;;;;;;1999.90;999.90;;;;;;;8.43;100.00;94692.78;5009578;28;20179;-72
2023/05/01 04:40:00;;;;;;;1999.90;999.90;;;;;;;8.56;100.00;94701.94;5010288;28;20218;-72
2023/05/01 04:42:32;;;;;;;1999.90;999.90;;;;;;;8.69;100.00;94722.00;5009576;28;20215;-73
2023/05/01 04:45:00;;;;;;;1999.90;999.90;;;;;;;8.74;100.00;94737.13;5009382;28;20218;-73
2023/05/01 04:47:27;;;;;;;1999.90;999.90;;;;;;;8.87;100.00;94752.53;5010100;28;20205;-73
2023/05/01 04:49:52;;;;;;;1999.90;999.90;;;;;;;9.07;100.00;94761.59;5009418;28;20192;-73
2023/05/01 04:52:18;;;;;;;1999.90;999.90;;;;;;;9.14;100.00;94780.56;5009288;28;20195;-73
2023/05/01 04:54:43;;;;;;;1999.90;999.90;;;;;;;9.40;100.00;94801.63;5009048;28;20200;-72
2023/05/01 04:57:08;;;;;;;1999.90;999.90;;;;;;;9.69;100.00;94813.69;5009296;28;20191;-72
2023/05/01 04:59:34;;;;;;;1999.90;999.90;;;;;;;9.70;100.00;94839.75;5009063;28;20199;-71
2023/05/01 05:01:59;;;;;;;1999.90;999.90;;;;;;;9.81;100.00;94859.47;5009554;28;20204;-71
2023/05/01 05:04:24;;;;;;;1999.90;999.90;;;;;;;9.86;100.00;94878.09;5009053;28;20202;-73
2023/05/01 05:06:50;;;;;;;1999.90;999.90;;;;;;;10.04;100.00;94892.25;5008888;28;20225;-72
2023/05/01 05:09:15;;;;;;;1999.90;999.90;;;;;;;10.09;100.00;94910.91;5009534;28;20204;-71
2023/05/01 05:11:41;;;;;;;1999.90;999.90;;;;;;;10.36;100.00;94912.88;5008817;28;20198;-71
2023/05/01 05:14:06;;;;;;;1999.90;999.90;;;;;;;10.38;100.00;94926.88;5009290;28;20213;-72
2023/05/01 05:16:32;;;;;;;1999.90;999.90;;;;;;;10.39;100.00;94939.34;5009035;28;20260;-73
2023/05/01 05:18:57;;;;;;;1999.90;999.90;;;;;;;10.84;100.00;94946.81;5008510;28;20220;-72
2023/05/01 05:21:22;;;;;;;1999.90;999.90;;;;;;;10.95;100.00;94952.09;5008881;28;20234;-72
2023/05/01 05:23:48;;;;;;;1999.90;999.90;;;;;;;11.61;100.00;94964.56;5008816;28;20209;-72
2023/05/01 05:26:13;;;;;;;1999.90;999.90;;;;;;;11.70;100.00;94985.91;5008981;28;20217;-72
2023/05/01 05:28:39;;;;;;;1999.90;999.90;;;;;;;11.90;100.00;94995.66;5008697;28;20228;-72
2023/05/01 05:31:05;;;;;;;1999.90;999.90;;;;;;;12.11;100.00;94994.47;5009032;28;20262;-71
2023/05/01 05:33:30;;;;;;;1999.90;999.90;;;;;;;12.33;100.00;95009.25;5008781;28;20195;-73
2023/05/01 05:35:57;;;;;;;1999.90;999.90;;;;;;;12.73;100.00;95002.50;5008337;28;20195;-72
2023/05/01 05:38:23;;;;;;;1999.90;999.90;;;;;;;12.96;100.00;95007.81;5008934;28;20190;-71
2023/05/01 05:40:48;;;;;;;1999.90;999.90;;;;;;;13.07;100.00;95020.09;5008371;28;20203;-72
2023/05/01 05:43:13;;;;;;;1999.90;999.90;;;;;;;12.91;100.00;95024.78;5008768;28;20262;-72
2023/05/01 05:45:39;;;;;;;1999.90;999.90;;;;;;;13.14;100.00;95014.47;5008253;28;20211;-71
2023/05/01 05:48:04;;;;;;;1999.90;999.90;;;;;;;13.38;100.00;95023.28;5008633;28;20190;-71
2023/05/01 05:50:30;;;;;;;1999.90;999.90;;;;;;;13.35;100.00;95018.66;5008261;28;20266;-71
2023/05/01 05:52:55;;;;;;;1999.90;999.90;;;;;;;13.19;100.00;95032.38;5008373;28;20187;-72
2023/05/01 05:55:21;;;;;;;1999.90;999.90;;;;;;;13.12;100.00;95027.06;5008230;28;20187;-72
2023/05/01 05:57:46;;;;;;;1999.90;999.90;;;;;;;12.65;100.00;95034.00;5008108;28;20194;-72
2023/05/01 06:00:13;;;;;;;1999.90;999.90;;;;;;;12.33;100.00;95028.41;5007388;28;20187;-71
2023/05/01 06:02:38;;;;;;;1999.90;999.90;;;;;;;12.14;100.00;95034.69;5007843;28;20207;-72
2023/05/01 06:05:04;;;;;;;1999.90;999.90;;;;;;;12.02;100.00;95033.34;5008212;28;20198;-72
2023/05/01 06:07:30;;;;;;;1999.90;999.90;;;;;;;12.09;100.00;95032.44;5008041;28;20207;-72
2023/05/01 06:10:00;;;;;;;1999.90;999.90;;;;;;;12.29;100.00;95025.75;5007813;28;20171;-72
2023/05/01 06:12:26;;;;;;;1999.90;999.90;;;;;;;12.06;100.00;95027.81;5008314;28;20195;-72
2023/05/01 06:14:51;;;;;;;1999.90;999.90;;;;;;;12.01;100.00;95025.53;5008068;28;20266;-71
2023/05/01 06:17:16;;;;;;;1999.90;999.90;;;;;;;11.71;100.00;95036.69;5007646;28;20211;-71
2023/05/01 06:19:42;;;;;;;1999.90;999.90;;;;;;;11.83;100.00;95030.59;5007631;28;20206;-71
2023/05/01 06:22:07;;;;;;;1999.90;999.90;;;;;;;11.85;100.00;95028.22;5007643;28;20194;-71
2023/05/01 06:24:33;;;;;;;1999.90;999.90;;;;;;;11.97;100.00;95022.09;5007613;28;20263;-71
2023/05/01 06:26:58;;;;;;;1999.90;999.90;;;;;;;12.06;100.00;95033.28;5007626;28;20254;-71
2023/05/01 06:29:24;;;;;;;1999.90;999.90;;;;;;;12.13;100.00;95033.16;5007734;28;20236;-71
2023/05/01 06:31:49;;;;;;;1999.90;999.90;;;;;;;12.04;100.00;95030.19;5007752;28;20222;-71
2023/05/01 06:34:14;;;;;;;1999.90;999.90;;;;;;;12.04;100.00;95025.50;5007839;28;20191;-72
2023/05/01 06:36:40;;;;;;;1999.90;999.90;;;;;;;12.19;100.00;95028.69;5007739;28;20206;-71
2023/05/01 06:39:05;;;;;;;1999.90;999.90;;;;;;;12.10;100.00;95036.72;5007465;28;20219;-71
2023/05/01 06:41:31;;;;;;;1999.90;999.90;;;;;;;12.02;100.00;95027.09;5007706;28;20211;-71
2023/05/01 06:43:57;;;;;;;1999.90;999.90;;;;;;;12.16;100.00;95032.28;5007123;28;20262;-71
2023/05/01 06:46:22;;;;;;;1999.90;999.90;;;;;;;12.07;100.00;95040.28;5007743;28;20218;-71
2023/05/01 06:48:48;;;;;;;1999.90;999.90;;;;;;;12.19;100.00;95031.44;5007614;28;20224;-72
2023/05/01 06:51:14;;;;;;;1999.90;999.90;;;;;;;12.32;100.00;95035.09;5008048;28;20199;-71
2023/05/01 06:53:40;;;;;;;1999.90;999.90;;;;;;;12.39;100.00;95040.44;5007635;28;20218;-71
2023/05/01 06:56:06;;;;;;;1999.90;999.90;;;;;;;12.47;100.00;95039.06;5007463;28;20230;-72
2023/05/01 06:58:32;;;;;;;1999.90;999.90;;;;;;;12.51;100.00;95031.56;5007228;28;20218;-74
2023/05/01 07:00:57;;;;;;;1999.90;999.90;;;;;;;12.76;100.00;95023.56;5007471;28;20198;-73
2023/05/01 07:03:22;;;;;;;1999.90;999.90;;;;;;;13.02;100.00;95039.03;5007353;28;20194;-73
2023/05/01 07:05:48;;;;;;;1999.90;999.90;;;;;;;12.99;100.00;95040.66;5007914;28;20215;-73
2023/05/01 07:08:13;;;;;;;1999.90;999.90;;;;;;;12.99;100.00;95040.66;5007215;28;20191;-73
2023/05/01 07:10:38;;;;;;;1999.90;999.90;;;;;;;13.03;100.00;95029.59;5007160;28;20198;-73
2023/05/01 07:13:04;;;;;;;1999.90;999.90;;;;;;;13.32;100.00;95035.97;5010666;28;20268;-74
2023/05/01 07:15:29;;;;;;;1999.90;999.90;;;;;;;13.46;100.00;95030.13;5011469;28;20191;-73
2023/05/01 07:17:55;;;;;;;1999.90;999.90;;;;;;;13.83;100.00;95031.50;5011463;28;20195;-74
2023/05/01 07:20:20;;;;;;;1999.90;999.90;;;;;;;14.06;100.00;95034.03;5011329;28;20218;-73
2023/05/01 07:22:46;;;;;;;1999.90;999.90;;;;;;;14.17;100.00;95029.78;5010832;28;20207;-74
2023/05/01 07:25:11;;;;;;;1999.90;999.90;;;;;;;14.35;100.00;95032.81;5011415;28;20221;-73
2023/05/01 07:27:36;;;;;;;1999.90;999.90;;;;;;;14.62;100.00;95029.69;5010735;28;20265;-73
2023/05/01 07:30:03;;;;;;;1999.90;999.90;;;;;;;14.95;100.00;95029.06;5010817;28;20195;-73
2023/05/01 07:32:29;;;;;;;1999.90;999.90;;;;;;;15.23;100.00;95028.16;5010461;28;20205;-75
2023/05/01 07:34:55;;;;;;;1999.90;999.90;;;;;;;15.44;100.00;95026.75;5011108;28;20195;-72
2023/05/01 07:37:20;;;;;;;1999.90;999.90;;;;;;;15.75;100.00;95031.19;5010842;28;20191;-71
2023/05/01 07:39:45;;;;;;;1999.90;999.90;;;;;;;15.69;100.00;95032.97;5010390;28;20229;-72
2023/05/01 07:42:11;;;;;;;1999.90;999.90;;;;;;;16.09;100.00;95039.44;5011127;28;20186;-71
2023/05/01 07:44:36;;;;;;;1999.90;999.90;;;;;;;16.25;100.00;95035.75;5010673;28;20210;-72
2023/05/01 07:47:05;;;;;;;1999.90;999.90;;;;;;;16.42;100.00;95046.16;5010634;28;20214;-72
2023/05/01 07:49:37;;;;;;;1999.90;999.90;;;;;;;16.42;100.00;95037.88;5010902;28;20202;-72
2023/05/01 07:52:06;;;;;;;1999.90;999.90;;;;;;;16.29;100.00;95031.63;5010220;28;20202;-72
2023/05/01 07:54:31;;;;;;;1999.90;999.90;;;;;;;16.16;100.00;95044.72;5010425;28;20204;-71
2023/05/01 07:56:56;;;;;;;1999.90;999.90;;;;;;;16.02;100.00;95036.94;5010118;28;20194;-70
2023/05/01 07:59:22;;;;;;;1999.90;999.90;;;;;;;15.96;100.00;95046.97;5010481;28;20274;-70
2023/05/01 08:01:47;;;;;;;1999.90;999.90;;;;;;;15.90;100.00;95039.72;5010169;28;20218;-71
2023/05/01 08:04:13;;;;;;;1999.90;999.90;;;;;;;15.78;100.00;95046.81;5010425;28;20219;-71
2023/05/01 08:06:39;;;;;;;1999.90;999.90;;;;;;;15.64;100.00;95047.31;5010193;28;20199;-71
2023/05/01 08:09:04;;;;;;;1999.90;999.90;;;;;;;15.46;100.00;95036.09;5009999;28;20202;-71
2023/05/01 08:11:32;;;;;;;1999.90;999.90;;;;;;;15.25;100.00;95041.47;5010548;28;20202;-70
2023/05/01 08:13:57;;;;;;;1999.90;999.90;;;;;;;15.06;100.00;95046.00;5010625;28;20249;-71
2023/05/01 08:16:23;;;;;;;1999.90;999.90;;;;;;;15.11;100.00;95050.19;5010385;28;20262;-72
2023/05/01 08:18:48;;;;;;;1999.90;999.90;;;;;;;15.09;100.00;95056.13;5010163;28;20266;-71
2023/05/01 08:21:13;;;;;;;1999.90;999.90;;;;;;;15.08;100.00;95057.34;5009777;28;20215;-71
2023/05/01 08:23:39;;;;;;;1999.90;999.90;;;;;;;15.05;100.00;95055.44;5008898;28;20249;-71
2023/05/01 08:26:04;;;;;;;1999.90;999.90;;;;;;;15.11;100.00;95053.72;5009975;28;20262;-72
2023/05/01 08:28:29;;;;;;;1999.90;999.90;;;;;;;14.96;100.00;95058.09;5009942;28;20210;-72
2023/05/01 08:30:57;;;;;;;1999.90;999.90;;;;;;;14.77;100.00;95067.34;5009495;28;20199;-71
2023/05/01 08:33:23;;;;;;;1999.90;999.90;;;;;;;14.66;100.00;95063.34;5009613;28;20199;-71
2023/05/01 08:35:48;;;;;;;1999.90;999.90;;;;;;;14.55;100.00;95060.13;5009741;28;20195;-71
2023/05/01 08:38:14;;;;;;;1999.90;999.90;;;;;;;14.40;100.00;95068.03;5009616;28;20199;-73
2023/05/01 08:40:41;;;;;;;1999.90;999.90;;;;;;;14.40;100.00;95075.47;5010197;28;20183;-72
2023/05/01 08:43:07;;;;;;;1999.90;999.90;;;;;;;14.44;100.00;95059.66;5009729;28;20226;-72
2023/05/01 08:45:34;;;;;;;1999.90;999.90;;;;;;;14.59;100.00;95071.78;5009328;28;20207;-72
2023/05/01 08:48:04;;;;;;;1999.90;999.90;;;;;;;14.59;100.00;95067.06;5009215;28;20211;-72
2023/05/01 08:50:32;;;;;;;1999.90;999.90;;;;;;;14.53;100.00;95068.81;5008931;28;20233;-73
2023/05/01 08:52:58;;;;;;;1999.90;999.90;;;;;;;14.49;100.00;95073.63;5009169;28;20206;-72
2023/05/01 08:55:26;;;;;;;1999.90;999.90;;;;;;;14.66;100.00;95069.63;5009029;28;20259;-72
2023/05/01 08:57:52;;;;;;;1999.90;999.90;;;;;;;14.78;100.00;95068.88;5009110;28;20234;-72
2023/05/01 09:00:20;;;;;;;1999.90;999.90;;;;;;;14.83;100.00;95076.56;5008984;28;20187;-72
2023/05/01 09:02:47;;;;;;;1999.90;999.90;;;;;;;14.86;100.00;95070.19;5009144;28;20198;-73
2023/05/01 09:05:16;;;;;;;1999.90;999.90;;;;;;;14.98;100.00;95072.19;5009464;28;20195;-71
2023/05/01 09:07:42;;;;;;;1999.90;999.90;;;;;;;15.07;100.00;95072.31;5009272;28;20248;-72
2023/05/01 09:10:08;;;;;;;1999.90;999.90;;;;;;;14.91;100.00;95077.91;5009310;28;20203;-71
2023/05/01 09:12:36;;;;;;;1999.90;999.90;;;;;;;14.85;100.00;95076.13;5008908;28;20264;-71
2023/05/01 09:15:02;;;;;;;1999.90;999.90;;;;;;;14.86;100.00;95080.44;5009062;28;20222;-71
2023/05/01 09:17:30;;;;;;;1999.90;999.90;;;;;;;14.85;100.00;95079.66;5008868;28;20195;-71
2023/05/01 09:19:56;;;;;;;1999.90;999.90;;;;;;;14.91;100.00;95077.13;5009031;28;20202;-71
2023/05/01 09:22:22;;;;;;;1999.90;999.90;;;;;;;15.10;100.00;95081.66;5008846;28;20218;-71
2023/05/01 09:24:47;;;;;;;1999.90;999.90;;;;;;;15.22;100.00;95078.91;5008748;28;20203;-71
2023/05/01 09:27:13;;;;;;;1999.90;999.90;;;;;;;15.11;100.00;95081.22;5008568;28;20210;-71
2023/05/01 09:29:38;;;;;;;1999.90;999.90;;;;;;;15.26;100.00;95087.81;5008988;28;20195;-71
2023/05/01 09:32:19;;;;;;;1999.90;999.90;;;;;;;15.38;100.00;95089.84;5008984;28;20195;-71
2023/05/01 09:34:47;;;;;;;1999.90;999.90;;;;;;;15.25;100.00;95086.28;5009085;28;20179;-71
2023/05/01 09:37:26;;;;;;;1999.90;999.90;;;;;;;15.45;100.00;95094.34;5008703;28;20222;-71
2023/05/01 09:40:09;;;;;;;1999.90;999.90;;;;;;;15.35;100.00;95093.47;5008544;28;20219;-72
2023/05/01 09:42:57;;;;;;;1999.90;999.90;;;;;;;14.86;100.00;95092.19;5008417;28;20203;-73
2023/05/01 09:45:23;;;;;;;1999.90;999.90;;;;;;;14.88;100.00;95100.00;5008256;28;20195;-71
2023/05/01 09:47:48;;;;;;;1999.90;999.90;;;;;;;14.83;100.00;95097.81;5008794;28;20210;-71
2023/05/01 09:50:32;;;;;;;1999.90;999.90;;;;;;;15.08;100.00;95103.34;5009012;28;20193;-71
2023/05/01 09:53:00;;;;;;;1999.90;999.90;;;;;;;14.89;100.00;95102.31;5008415;28;20220;-70
2023/05/01 09:55:25;;;;;;;1999.90;999.90;;;;;;;14.80;100.00;95096.69;5008373;28;20236;-70
2023/05/01 09:57:51;;;;;;;1999.90;999.90;;;;;;;14.67;100.00;95101.38;5008351;28;20219;-70
2023/05/01 10:00:19;;;;;;;1999.90;999.90;;;;;;;14.67;100.00;95106.88;5008596;28;20191;-70
2023/05/01 10:02:46;;;;;;;1999.90;999.90;;;;;;;14.70;100.00;95097.78;5008000;28;20237;-72
2023/05/01 10:05:12;;;;;;;1999.90;999.90;;;;;;;14.51;100.00;95103.44;5008168;28;20201;-72
2023/05/01 10:07:39;;;;;;;1999.90;999.90;;;;;;;14.68;100.00;95093.91;5007953;28;20226;-72
2023/05/01 10:10:19;;;;;;;1999.90;999.90;;;;;;;14.58;100.00;95095.00;5008324;28;20187;-73
2023/05/01 10:12:45;;;;;;;1999.90;999.90;;;;;;;14.82;100.00;95096.25;5007866;28;20199;-73
2023/05/01 10:15:11;;;;;;;1999.90;999.90;;;;;;;14.84;100.00;95094.63;5007800;28;20299;-70
2023/05/01 10:17:38;;;;;;;1999.90;999.90;;;;;;;14.85;100.00;95104.41;5008023;28;20210;-73
2023/05/01 10:20:05;;;;;;;1999.90;999.90;;;;;;;14.72;100.00;95092.59;5007905;28;20262;-73
2023/05/01 10:22:30;;;;;;;1999.90;999.90;;;;;;;14.66;100.00;95088.84;5007630;28;20202;-73
2023/05/01 10:24:58;;;;;;;1999.90;999.90;;;;;;;14.37;100.00;95082.63;5007939;28;20187;-72
2023/05/01 10:27:25;;;;;;;1999.90;999.90;;;;;;;14.17;100.00;95076.47;5007643;28;20203;-73
2023/05/01 10:29:52;;;;;;;1999.90;999.90;;;;;;;14.30;100.00;95066.34;5007795;28;20265;-73
2023/05/01 10:32:19;;;;;;;1999.90;999.90;;;;;;;14.29;100.00;95048.31;5007448;28;20191;-71
2023/05/01 10:34:51;;;;;;;1999.90;999.90;;;;;;;14.26;100.00;95040.94;5007501;28;20187;-71
2023/05/01 10:37:39;;;;;;;1999.90;999.90;;;;;;;14.03;100.00;95030.19;5007626;28;20203;-71
2023/05/01 10:40:50;;;;;;;1999.90;999.90;;;;;;;13.75;100.00;95030.94;5007898;28;20195;-71
2023/05/01 10:43:29;;;;;;;1999.90;999.90;;;;;;;13.71;100.00;95013.78;4992637;28;20282;-73
2023/05/01 10:46:06;;;;;;;1999.90;999.90;;;;;;;13.65;100.00;95009.28;5008096;28;20198;-73
2023/05/01 10:48:38;;;;;;;1999.90;999.90;;;;;;;13.36;100.00;95006.47;5014175;28;20209;-70
2023/05/01 10:51:12;;;;;;;1999.90;999.90;;;;;;;13.38;100.00;94995.84;5014154;28;20225;-70